Terminal Aerodrome Forecast
Issued by NWS

Home | Current Version | Previous Version | Text Only | Print | Product List | Glossary On
Versions: 1 2 3 4 5 6 7 8 9 10 11 12 13 14
785
FTUS46 KMTR 191138
TAFSNS
TAF
KSNS 191138Z 1912/2012 26010KT P6SM VCSH BKN040 OVC100
      TEMPO 1913/1917 5SM SHRA BKN025 OVC030
     FM191700 28010KT P6SM VCSH BKN040
     FM192100 29015G22KT P6SM VCSH BKN040
     FM200300 26007KT P6SM FEW030=

USA.gov is the U.S. government's official web portal to all federal, state and local government web resources and services.